sensor_id;sensor_type;location;lat;lon;timestamp;pressure;altitude;pressure_sealevel;temperature
71897;BMP280;59767;51.344;12.362;2023-08-08T00:00:33;162373.66;;;14.44
71897;BMP280;59767;51.344;12.362;2023-08-08T00:03:37;162380.22;;;14.46
71897;BMP280;59767;51.344;12.362;2023-08-08T00:06:41;162369.72;;;14.42
71897;BMP280;59767;51.344;12.362;2023-08-08T00:09:45;162364.44;;;14.40
71897;BMP280;59767;51.344;12.362;2023-08-08T00:12:49;162367.09;;;14.41
71897;BMP280;59767;51.344;12.362;2023-08-08T00:15:54;162365.78;;;14.41
71897;BMP280;59767;51.344;12.362;2023-08-08T00:18:58;162368.38;;;14.42
71897;BMP280;59767;51.344;12.362;2023-08-08T00:22:03;162348.72;;;14.34
71897;BMP280;59767;51.344;12.362;2023-08-08T00:25:07;162342.22;;;14.32
71897;BMP280;59767;51.344;12.362;2023-08-08T00:28:12;162348.72;;;14.34
71897;BMP280;59767;51.344;12.362;2023-08-08T00:31:18;162340.91;;;14.31
71897;BMP280;59767;51.344;12.362;2023-08-08T00:34:24;162346.13;;;14.33
71897;BMP280;59767;51.344;12.362;2023-08-08T00:37:28;162318.56;;;14.23
71897;BMP280;59767;51.344;12.362;2023-08-08T00:40:32;162322.50;;;14.24
71897;BMP280;59767;51.344;12.362;2023-08-08T00:43:36;162326.47;;;14.26
71897;BMP280;59767;51.344;12.362;2023-08-08T00:46:40;162325.19;;;14.25
71897;BMP280;59767;51.344;12.362;2023-08-08T00:49:45;162309.47;;;14.19
71897;BMP280;59767;51.344;12.362;2023-08-08T00:52:52;162285.81;;;14.10
71897;BMP280;59767;51.344;12.362;2023-08-08T00:55:58;162280.66;;;14.08
71897;BMP280;59767;51.344;12.362;2023-08-08T00:59:04;162295.03;;;14.14
71897;BMP280;59767;51.344;12.362;2023-08-08T01:02:07;162279.31;;;14.08
71897;BMP280;59767;51.344;12.362;2023-08-08T01:05:12;162279.31;;;14.08
71897;BMP280;59767;51.344;12.362;2023-08-08T01:08:21;162263.59;;;14.02
71897;BMP280;59767;51.344;12.362;2023-08-08T01:11:28;162255.72;;;13.99
71897;BMP280;59767;51.344;12.362;2023-08-08T01:14:34;162245.22;;;13.95
71897;BMP280;59767;51.344;12.362;2023-08-08T01:17:39;162236.06;;;13.91
71897;BMP280;59767;51.344;12.362;2023-08-08T01:20:46;162243.91;;;13.94
71897;BMP280;59767;51.344;12.362;2023-08-08T01:24:01;162230.81;;;13.89
71897;BMP280;59767;51.344;12.362;2023-08-08T01:27:08;162209.88;;;13.81
71897;BMP280;59767;51.344;12.362;2023-08-08T01:30:13;162200.72;;;13.78
71897;BMP280;59767;51.344;12.362;2023-08-08T01:33:18;162211.16;;;13.82
71897;BMP280;59767;51.344;12.362;2023-08-08T01:36:28;162196.75;;;13.76
71897;BMP280;59767;51.344;12.362;2023-08-08T01:39:35;162198.03;;;13.77
71897;BMP280;59767;51.344;12.362;2023-08-08T01:42:40;162219.03;;;13.85
71897;BMP280;59767;51.344;12.362;2023-08-08T01:45:45;162200.72;;;13.78
71897;BMP280;59767;51.344;12.362;2023-08-08T01:48:49;162191.50;;;13.74
71897;BMP280;59767;51.344;12.362;2023-08-08T01:51:53;162169.25;;;13.66
71897;BMP280;59767;51.344;12.362;2023-08-08T01:54:57;162177.06;;;13.69
71897;BMP280;59767;51.344;12.362;2023-08-08T01:58:01;162174.44;;;13.68
71897;BMP280;59767;51.344;12.362;2023-08-08T02:01:06;162181.00;;;13.70
71897;BMP280;59767;51.344;12.362;2023-08-08T02:04:10;162178.41;;;13.69
71897;BMP280;59767;51.344;12.362;2023-08-08T02:07:14;162181.00;;;13.70
71897;BMP280;59767;51.344;12.362;2023-08-08T02:10:19;162179.72;;;13.70
71897;BMP280;59767;51.344;12.362;2023-08-08T02:13:23;162171.91;;;13.67
71897;BMP280;59767;51.344;12.362;2023-08-08T02:16:27;162169.25;;;13.66
71897;BMP280;59767;51.344;12.362;2023-08-08T02:19:31;162171.91;;;13.67
71897;BMP280;59767;51.344;12.362;2023-08-08T02:22:36;162162.69;;;13.63
71897;BMP280;59767;51.344;12.362;2023-08-08T02:25:40;162156.13;;;13.61
71897;BMP280;59767;51.344;12.362;2023-08-08T02:28:44;162158.75;;;13.62
71897;BMP280;59767;51.344;12.362;2023-08-08T02:31:48;162160.09;;;13.62
71897;BMP280;59767;51.344;12.362;2023-08-08T02:34:53;162150.91;;;13.59
71897;BMP280;59767;51.344;12.362;2023-08-08T02:37:57;162160.09;;;13.62
71897;BMP280;59767;51.344;12.362;2023-08-08T02:41:01;162157.41;;;13.61
71897;BMP280;59767;51.344;12.362;2023-08-08T02:44:05;162161.34;;;13.63
71897;BMP280;59767;51.344;12.362;2023-08-08T02:47:09;162148.25;;;13.58
71897;BMP280;59767;51.344;12.362;2023-08-08T02:50:13;162153.53;;;13.60
71897;BMP280;59767;51.344;12.362;2023-08-08T02:53:17;162148.25;;;13.58
71897;BMP280;59767;51.344;12.362;2023-08-08T02:56:21;162160.09;;;13.62
71897;BMP280;59767;51.344;12.362;2023-08-08T02:59:25;162162.69;;;13.63
71897;BMP280;59767;51.344;12.362;2023-08-08T03:02:30;162156.13;;;13.61
71897;BMP280;59767;51.344;12.362;2023-08-08T03:05:34;162160.09;;;13.62
71897;BMP280;59767;51.344;12.362;2023-08-08T03:08:38;162175.78;;;13.68
71897;BMP280;59767;51.344;12.362;2023-08-08T03:11:42;162157.41;;;13.61
71897;BMP280;59767;51.344;12.362;2023-08-08T03:14:47;162164.00;;;13.64
71897;BMP280;59767;51.344;12.362;2023-08-08T03:17:51;162171.91;;;13.67
71897;BMP280;59767;51.344;12.362;2023-08-08T03:20:55;162144.31;;;13.56
71897;BMP280;59767;51.344;12.362;2023-08-08T03:23:59;162153.53;;;13.60
71897;BMP280;59767;51.344;12.362;2023-08-08T03:27:04;162145.66;;;13.57
71897;BMP280;59767;51.344;12.362;2023-08-08T03:30:09;162174.44;;;13.68
71897;BMP280;59767;51.344;12.362;2023-08-08T03:33:13;162153.53;;;13.60
71897;BMP280;59767;51.344;12.362;2023-08-08T03:36:17;162146.97;;;13.57
71897;BMP280;59767;51.344;12.362;2023-08-08T03:39:21;162158.75;;;13.62
71897;BMP280;59767;51.344;12.362;2023-08-08T03:42:25;162154.84;;;13.60
71897;BMP280;59767;51.344;12.362;2023-08-08T03:45:30;162173.13;;;13.67
71897;BMP280;59767;51.344;12.362;2023-08-08T03:48:34;162153.53;;;13.60
71897;BMP280;59767;51.344;12.362;2023-08-08T03:51:38;162154.84;;;13.60
71897;BMP280;59767;51.344;12.362;2023-08-08T03:54:43;162141.72;;;13.55
71897;BMP280;59767;51.344;12.362;2023-08-08T03:57:47;162149.59;;;13.58
71897;BMP280;59767;51.344;12.362;2023-08-08T04:00:52;162150.91;;;13.59
71897;BMP280;59767;51.344;12.362;2023-08-08T04:03:56;162169.25;;;13.66
71897;BMP280;59767;51.344;12.362;2023-08-08T04:07:01;162177.06;;;13.69
71897;BMP280;59767;51.344;12.362;2023-08-08T04:10:06;162200.72;;;13.78
71897;BMP280;59767;51.344;12.362;2023-08-08T04:13:10;162221.63;;;13.86
71897;BMP280;59767;51.344;12.362;2023-08-08T04:16:15;162245.22;;;13.95
71897;BMP280;59767;51.344;12.362;2023-08-08T04:19:19;162247.84;;;13.96
71897;BMP280;59767;51.344;12.362;2023-08-08T04:22:23;162264.88;;;14.02
71897;BMP280;59767;51.344;12.362;2023-08-08T04:25:27;162285.81;;;14.10
71897;BMP280;59767;51.344;12.362;2023-08-08T04:28:32;162304.19;;;14.17
71897;BMP280;59767;51.344;12.362;2023-08-08T04:31:37;162318.56;;;14.23
71897;BMP280;59767;51.344;12.362;2023-08-08T04:34:41;162322.50;;;14.24
71897;BMP280;59767;51.344;12.362;2023-08-08T04:37:44;162327.78;;;14.26
71897;BMP280;59767;51.344;12.362;2023-08-08T04:40:48;162336.94;;;14.30
71897;BMP280;59767;51.344;12.362;2023-08-08T04:43:52;162344.84;;;14.33
71897;BMP280;59767;51.344;12.362;2023-08-08T04:46:57;162378.88;;;14.46
71897;BMP280;59767;51.344;12.362;2023-08-08T04:50:01;162363.16;;;14.40
71897;BMP280;59767;51.344;12.362;2023-08-08T04:53:05;162371.06;;;14.43
71897;BMP280;59767;51.344;12.362;2023-08-08T04:56:09;162377.56;;;14.45
71897;BMP280;59767;51.344;12.362;2023-08-08T04:59:13;162378.88;;;14.46
71897;BMP280;59767;51.344;12.362;2023-08-08T05:02:17;162377.56;;;14.45
71897;BMP280;59767;51.344;12.362;2023-08-08T05:05:21;162377.56;;;14.45
71897;BMP280;59767;51.344;12.362;2023-08-08T05:08:26;162382.81;;;14.47
71897;BMP280;59767;51.344;12.362;2023-08-08T05:11:30;162395.94;;;14.52
71897;BMP280;59767;51.344;12.362;2023-08-08T05:14:34;162394.59;;;14.52
71897;BMP280;59767;51.344;12.362;2023-08-08T05:17:38;162405.16;;;14.56
71897;BMP280;59767;51.344;12.362;2023-08-08T05:20:42;162402.47;;;14.55
71897;BMP280;59767;51.344;12.362;2023-08-08T05:23:46;162420.88;;;14.62
71897;BMP280;59767;51.344;12.362;2023-08-08T05:26:51;162418.19;;;14.61
71897;BMP280;59767;51.344;12.362;2023-08-08T05:29:55;162420.88;;;14.62
71897;BMP280;59767;51.344;12.362;2023-08-08T05:32:59;162432.66;;;14.66
71897;BMP280;59767;51.344;12.362;2023-08-08T05:36:03;162444.41;;;14.71
71897;BMP280;59767;51.344;12.362;2023-08-08T05:39:08;162445.75;;;14.71
71897;BMP280;59767;51.344;12.362;2023-08-08T05:42:13;162449.69;;;14.73
71897;BMP280;59767;51.344;12.362;2023-08-08T05:45:17;162454.91;;;14.75
71897;BMP280;59767;51.344;12.362;2023-08-08T05:48:22;162462.81;;;14.78
71897;BMP280;59767;51.344;12.362;2023-08-08T05:51:26;162467.97;;;14.80
71897;BMP280;59767;51.344;12.362;2023-08-08T05:54:30;162454.91;;;14.75
71897;BMP280;59767;51.344;12.362;2023-08-08T05:57:35;162460.13;;;14.77
71897;BMP280;59767;51.344;12.362;2023-08-08T06:00:40;162460.13;;;14.77
71897;BMP280;59767;51.344;12.362;2023-08-08T06:03:44;162475.91;;;14.83
71897;BMP280;59767;51.344;12.362;2023-08-08T06:06:48;162494.25;;;14.90
71897;BMP280;59767;51.344;12.362;2023-08-08T06:09:53;162523.06;;;15.01
71897;BMP280;59767;51.344;12.362;2023-08-08T06:12:57;162523.06;;;15.01
71897;BMP280;59767;51.344;12.362;2023-08-08T06:16:01;162545.34;;;15.09
71897;BMP280;59767;51.344;12.362;2023-08-08T06:19:10;162557.13;;;15.14
71897;BMP280;59767;51.344;12.362;2023-08-08T06:22:16;162563.69;;;15.16
71897;BMP280;59767;51.344;12.362;2023-08-08T06:25:21;162582.09;;;15.23
71897;BMP280;59767;51.344;12.362;2023-08-08T06:28:24;162600.41;;;15.30
71897;BMP280;59767;51.344;12.362;2023-08-08T06:31:29;162596.47;;;15.29
71897;BMP280;59767;51.344;12.362;2023-08-08T06:34:33;162597.81;;;15.29
71897;BMP280;59767;51.344;12.362;2023-08-08T06:37:38;162600.41;;;15.30
71897;BMP280;59767;51.344;12.362;2023-08-08T06:40:42;162613.47;;;15.35
71897;BMP280;59767;51.344;12.362;2023-08-08T06:43:46;162633.22;;;15.43
71897;BMP280;59767;51.344;12.362;2023-08-08T06:46:50;162643.66;;;15.47
71897;BMP280;59767;51.344;12.362;2023-08-08T06:49:55;162669.94;;;15.57
71897;BMP280;59767;51.344;12.362;2023-08-08T06:52:59;162700.06;;;15.68
71897;BMP280;59767;51.344;12.362;2023-08-08T06:56:03;162710.56;;;15.72
71897;BMP280;59767;51.344;12.362;2023-08-08T06:59:07;162736.81;;;15.82
71897;BMP280;59767;51.344;12.362;2023-08-08T07:02:12;162772.16;;;15.96
71897;BMP280;59767;51.344;12.362;2023-08-08T07:05:16;162823.31;;;16.15
71897;BMP280;59767;51.344;12.362;2023-08-08T07:08:21;162879.69;;;16.37
71897;BMP280;59767;51.344;12.362;2023-08-08T07:11:25;162913.84;;;16.50
71897;BMP280;59767;51.344;12.362;2023-08-08T07:14:29;162974.19;;;16.73
71897;BMP280;59767;51.344;12.362;2023-08-08T07:17:34;162942.69;;;16.61
71897;BMP280;59767;51.344;12.362;2023-08-08T07:20:38;162894.16;;;16.42
71897;BMP280;59767;51.344;12.362;2023-08-08T07:23:43;162843.00;;;16.23
71897;BMP280;59767;51.344;12.362;2023-08-08T07:26:47;162795.78;;;16.05
71897;BMP280;59767;51.344;12.362;2023-08-08T07:29:54;162774.81;;;15.97
71897;BMP280;59767;51.344;12.362;2023-08-08T07:32:58;162759.03;;;15.91
71897;BMP280;59767;51.344;12.362;2023-08-08T07:36:02;162741.97;;;15.84
71897;BMP280;59767;51.344;12.362;2023-08-08T07:39:07;162732.88;;;15.81
71897;BMP280;59767;51.344;12.362;2023-08-08T07:42:11;162719.75;;;15.76
71897;BMP280;59767;51.344;12.362;2023-08-08T07:45:16;162707.97;;;15.71
71897;BMP280;59767;51.344;12.362;2023-08-08T07:48:21;162705.28;;;15.70
71897;BMP280;59767;51.344;12.362;2023-08-08T07:51:25;162696.16;;;15.67
71897;BMP280;59767;51.344;12.362;2023-08-08T07:54:30;162686.94;;;15.63
71897;BMP280;59767;51.344;12.362;2023-08-08T07:57:33;162706.63;;;15.71
71897;BMP280;59767;51.344;12.362;2023-08-08T08:00:38;162717.06;;;15.75
71897;BMP280;59767;51.344;12.362;2023-08-08T08:03:43;162759.03;;;15.91
71897;BMP280;59767;51.344;12.362;2023-08-08T08:06:47;162808.91;;;16.10
71897;BMP280;59767;51.344;12.362;2023-08-08T08:09:51;162811.53;;;16.11
71897;BMP280;59767;51.344;12.362;2023-08-08T08:12:56;162840.38;;;16.22
71897;BMP280;59767;51.344;12.362;2023-08-08T08:16:02;162835.16;;;16.20
71897;BMP280;59767;51.344;12.362;2023-08-08T08:19:06;162831.22;;;16.18
71897;BMP280;59767;51.344;12.362;2023-08-08T08:22:10;162816.81;;;16.13
71897;BMP280;59767;51.344;12.362;2023-08-08T08:25:15;162806.28;;;16.09
71897;BMP280;59767;51.344;12.362;2023-08-08T08:28:19;162791.84;;;16.03
71897;BMP280;59767;51.344;12.362;2023-08-08T08:31:23;162785.28;;;16.01
71897;BMP280;59767;51.344;12.362;2023-08-08T08:34:27;162780.06;;;15.99
71897;BMP280;59767;51.344;12.362;2023-08-08T08:37:32;162763.00;;;15.92
71897;BMP280;59767;51.344;12.362;2023-08-08T08:40:39;162782.66;;;16.00
71897;BMP280;59767;51.344;12.362;2023-08-08T08:43:44;162764.31;;;15.93
71897;BMP280;59767;51.344;12.362;2023-08-08T08:46:49;162772.16;;;15.96
71897;BMP280;59767;51.344;12.362;2023-08-08T08:49:55;162778.78;;;15.98
71897;BMP280;59767;51.344;12.362;2023-08-08T08:52:59;162798.41;;;16.06
71897;BMP280;59767;51.344;12.362;2023-08-08T08:56:04;162776.09;;;15.97
71897;BMP280;59767;51.344;12.362;2023-08-08T08:59:08;162751.19;;;15.88
71897;BMP280;59767;51.344;12.362;2023-08-08T09:02:12;162765.66;;;15.93
71897;BMP280;59767;51.344;12.362;2023-08-08T09:05:18;162774.81;;;15.97
71897;BMP280;59767;51.344;12.362;2023-08-08T09:08:25;162765.66;;;15.93
71897;BMP280;59767;51.344;12.362;2023-08-08T09:11:31;162794.50;;;16.04
71897;BMP280;59767;51.344;12.362;2023-08-08T09:14:41;162840.38;;;16.22
71897;BMP280;59767;51.344;12.362;2023-08-08T09:17:46;162877.13;;;16.36
71897;BMP280;59767;51.344;12.362;2023-08-08T09:20:53;162909.91;;;16.48
71897;BMP280;59767;51.344;12.362;2023-08-08T09:23:57;162913.84;;;16.50
71897;BMP280;59767;51.344;12.362;2023-08-08T09:27:02;162917.75;;;16.51
71897;BMP280;59767;51.344;12.362;2023-08-08T09:30:07;162913.84;;;16.50
71897;BMP280;59767;51.344;12.362;2023-08-08T09:33:13;162945.31;;;16.62
71897;BMP280;59767;51.344;12.362;2023-08-08T09:36:19;163008.28;;;16.86
71897;BMP280;59767;51.344;12.362;2023-08-08T09:39:24;163066.03;;;17.08
71897;BMP280;59767;51.344;12.362;2023-08-08T09:42:28;163127.66;;;17.31
71897;BMP280;59767;51.344;12.362;2023-08-08T09:45:40;163202.47;;;17.60
71897;BMP280;59767;51.344;12.362;2023-08-08T09:48:46;163285.16;;;17.91
71897;BMP280;59767;51.344;12.362;2023-08-08T09:51:51;163332.41;;;18.09
71897;BMP280;59767;51.344;12.362;2023-08-08T09:54:55;163454.47;;;18.56
71897;BMP280;59767;51.344;12.362;2023-08-08T09:58:00;163504.38;;;18.75
71897;BMP280;59767;51.344;12.362;2023-08-08T10:01:05;163534.56;;;18.86
71897;BMP280;59767;51.344;12.362;2023-08-08T10:04:11;163520.06;;;18.81
71897;BMP280;59767;51.344;12.362;2023-08-08T10:07:15;163564.75;;;18.98
71897;BMP280;59767;51.344;12.362;2023-08-08T10:10:19;163591.00;;;19.08
71897;BMP280;59767;51.344;12.362;2023-08-08T10:13:26;163619.91;;;19.19
71897;BMP280;59767;51.344;12.362;2023-08-08T10:16:33;163644.81;;;19.28
71897;BMP280;59767;51.344;12.362;2023-08-08T10:19:38;163678.97;;;19.41
71897;BMP280;59767;51.344;12.362;2023-08-08T10:22:44;163665.88;;;19.36
71897;BMP280;59767;51.344;12.362;2023-08-08T10:25:51;163585.81;;;19.06
71897;BMP280;59767;51.344;12.362;2023-08-08T10:29:00;163517.47;;;18.80
71897;BMP280;59767;51.344;12.362;2023-08-08T10:32:06;163449.19;;;18.54
71897;BMP280;59767;51.344;12.362;2023-08-08T10:35:12;163373.13;;;18.25
71897;BMP280;59767;51.344;12.362;2023-08-08T10:38:16;163367.84;;;18.23
71897;BMP280;59767;51.344;12.362;2023-08-08T10:41:22;163417.72;;;18.42
71897;BMP280;59767;51.344;12.362;2023-08-08T10:44:26;163478.13;;;18.65
71897;BMP280;59767;51.344;12.362;2023-08-08T10:47:35;163538.50;;;18.88
71897;BMP280;59767;51.344;12.362;2023-08-08T10:50:40;163526.72;;;18.83
71897;BMP280;59767;51.344;12.362;2023-08-08T10:53:45;163474.13;;;18.63
71897;BMP280;59767;51.344;12.362;2023-08-08T10:56:51;163465.00;;;18.60
71897;BMP280;59767;51.344;12.362;2023-08-08T11:00:16;163517.47;;;18.80
71897;BMP280;59767;51.344;12.362;2023-08-08T11:03:21;163554.22;;;18.94
71897;BMP280;59767;51.344;12.362;2023-08-08T11:06:25;163579.19;;;19.03
71897;BMP280;59767;51.344;12.362;2023-08-08T11:09:30;163631.75;;;19.23
71897;BMP280;59767;51.344;12.362;2023-08-08T11:12:34;163675.06;;;19.40
71897;BMP280;59767;51.344;12.362;2023-08-08T11:15:38;163688.22;;;19.45
71897;BMP280;59767;51.344;12.362;2023-08-08T11:18:43;163663.25;;;19.35
71897;BMP280;59767;51.344;12.362;2023-08-08T11:21:48;163713.09;;;19.54
71897;BMP280;59767;51.344;12.362;2023-08-08T11:24:53;163744.66;;;19.66
71897;BMP280;59767;51.344;12.362;2023-08-08T11:28:01;163756.53;;;19.70
71897;BMP280;59767;51.344;12.362;2023-08-08T11:31:06;163784.06;;;19.81
71897;BMP280;59767;51.344;12.362;2023-08-08T11:34:11;163768.34;;;19.75
71897;BMP280;59767;51.344;12.362;2023-08-08T11:37:16;163746.00;;;19.66
71897;BMP280;59767;51.344;12.362;2023-08-08T11:40:23;163789.34;;;19.83
71897;BMP280;59767;51.344;12.362;2023-08-08T11:43:28;163898.38;;;20.24
71897;BMP280;59767;51.344;12.362;2023-08-08T11:46:32;163965.38;;;20.50
71897;BMP280;59767;51.344;12.362;2023-08-08T11:49:42;164075.69;;;20.92
71897;BMP280;59767;51.344;12.362;2023-08-08T11:52:47;164108.53;;;21.04
71897;BMP280;59767;51.344;12.362;2023-08-08T11:55:51;164103.28;;;21.02
71897;BMP280;59767;51.344;12.362;2023-08-08T11:58:55;164077.00;;;20.92
71897;BMP280;59767;51.344;12.362;2023-08-08T12:01:59;164003.41;;;20.64
71897;BMP280;59767;51.344;12.362;2023-08-08T12:05:06;163944.31;;;20.42
71897;BMP280;59767;51.344;12.362;2023-08-08T12:08:10;163851.03;;;20.06
71897;BMP280;59767;51.344;12.362;2023-08-08T12:11:15;163781.44;;;19.80
71897;BMP280;59767;51.344;12.362;2023-08-08T12:14:19;163747.28;;;19.67
71897;BMP280;59767;51.344;12.362;2023-08-08T12:17:23;163743.38;;;19.65
71897;BMP280;59767;51.344;12.362;2023-08-08T12:20:29;163777.53;;;19.78
71897;BMP280;59767;51.344;12.362;2023-08-08T12:23:36;163914.09;;;20.30
71897;BMP280;59767;51.344;12.362;2023-08-08T12:26:40;163967.94;;;20.51
71897;BMP280;59767;51.344;12.362;2023-08-08T12:29:44;163946.94;;;20.43
71897;BMP280;59767;51.344;12.362;2023-08-08T12:32:48;163975.88;;;20.54
71897;BMP280;59767;51.344;12.362;2023-08-08T12:35:53;164038.94;;;20.78
71897;BMP280;59767;51.344;12.362;2023-08-08T12:38:57;164058.63;;;20.85
71897;BMP280;59767;51.344;12.362;2023-08-08T12:42:01;164045.47;;;20.80
71897;BMP280;59767;51.344;12.362;2023-08-08T12:45:06;163966.63;;;20.50
71897;BMP280;59767;51.344;12.362;2023-08-08T12:48:11;163953.50;;;20.45
71897;BMP280;59767;51.344;12.362;2023-08-08T12:51:16;163958.75;;;20.47
71897;BMP280;59767;51.344;12.362;2023-08-08T12:54:21;164032.31;;;20.75
71897;BMP280;59767;51.344;12.362;2023-08-08T12:57:25;164116.41;;;21.07
71897;BMP280;59767;51.344;12.362;2023-08-08T13:00:30;164146.63;;;21.19
71897;BMP280;59767;51.344;12.362;2023-08-08T13:03:34;164077.00;;;20.92
71897;BMP280;59767;51.344;12.362;2023-08-08T13:06:38;164037.59;;;20.77
71897;BMP280;59767;51.344;12.362;2023-08-08T13:09:42;164029.72;;;20.74
71897;BMP280;59767;51.344;12.362;2023-08-08T13:12:49;164049.41;;;20.82
71897;BMP280;59767;51.344;12.362;2023-08-08T13:15:54;164003.41;;;20.64
71897;BMP280;59767;51.344;12.362;2023-08-08T13:18:58;163956.13;;;20.46
71897;BMP280;59767;51.344;12.362;2023-08-08T13:22:02;163958.75;;;20.47
71897;BMP280;59767;51.344;12.362;2023-08-08T13:25:07;163943.03;;;20.41
71897;BMP280;59767;51.344;12.362;2023-08-08T13:28:11;163929.88;;;20.36
71897;BMP280;59767;51.344;12.362;2023-08-08T13:31:16;163929.88;;;20.36
71897;BMP280;59767;51.344;12.362;2023-08-08T13:34:20;163916.72;;;20.31
71897;BMP280;59767;51.344;12.362;2023-08-08T13:37:24;163870.72;;;20.14
71897;BMP280;59767;51.344;12.362;2023-08-08T13:40:29;163814.25;;;19.92
71897;BMP280;59767;51.344;12.362;2023-08-08T13:43:33;163805.06;;;19.89
71897;BMP280;59767;51.344;12.362;2023-08-08T13:46:37;163789.34;;;19.83
71897;BMP280;59767;51.344;12.362;2023-08-08T13:49:41;163812.91;;;19.92
71897;BMP280;59767;51.344;12.362;2023-08-08T13:52:46;163836.56;;;20.01
71897;BMP280;59767;51.344;12.362;2023-08-08T13:55:50;163837.88;;;20.01
71897;BMP280;59767;51.344;12.362;2023-08-08T13:58:54;163876.03;;;20.16
71897;BMP280;59767;51.344;12.362;2023-08-08T14:01:58;163906.22;;;20.27
71897;BMP280;59767;51.344;12.362;2023-08-08T14:05:03;163929.88;;;20.36
71897;BMP280;59767;51.344;12.362;2023-08-08T14:08:10;163940.34;;;20.40
71897;BMP280;59767;51.344;12.362;2023-08-08T14:11:14;163956.13;;;20.46
71897;BMP280;59767;51.344;12.362;2023-08-08T14:14:18;163929.88;;;20.36
71897;BMP280;59767;51.344;12.362;2023-08-08T14:17:23;163907.50;;;20.28
71897;BMP280;59767;51.344;12.362;2023-08-08T14:20:27;163882.53;;;20.18
71897;BMP280;59767;51.344;12.362;2023-08-08T14:23:34;163791.91;;;19.84
71897;BMP280;59767;51.344;12.362;2023-08-08T14:26:38;163702.63;;;19.50
71897;BMP280;59767;51.344;12.362;2023-08-08T14:29:42;163647.47;;;19.29
71897;BMP280;59767;51.344;12.362;2023-08-08T14:32:46;163596.28;;;19.10
71897;BMP280;59767;51.344;12.362;2023-08-08T14:35:50;163602.84;;;19.12
71897;BMP280;59767;51.344;12.362;2023-08-08T14:38:55;163587.03;;;19.06
71897;BMP280;59767;51.344;12.362;2023-08-08T14:41:59;163594.94;;;19.09
71897;BMP280;59767;51.344;12.362;2023-08-08T14:45:04;163600.19;;;19.11
71897;BMP280;59767;51.344;12.362;2023-08-08T14:48:08;163627.81;;;19.22
71897;BMP280;59767;51.344;12.362;2023-08-08T14:51:12;163608.09;;;19.14
71897;BMP280;59767;51.344;12.362;2023-08-08T14:54:20;163596.28;;;19.10
71897;BMP280;59767;51.344;12.362;2023-08-08T14:57:24;163585.81;;;19.06
71897;BMP280;59767;51.344;12.362;2023-08-08T15:00:29;163576.56;;;19.02
71897;BMP280;59767;51.344;12.362;2023-08-08T15:03:33;163587.03;;;19.06
71897;BMP280;59767;51.344;12.362;2023-08-08T15:06:37;163587.03;;;19.06
71897;BMP280;59767;51.344;12.362;2023-08-08T15:09:44;163601.53;;;19.12
71897;BMP280;59767;51.344;12.362;2023-08-08T15:12:48;163602.84;;;19.12
71897;BMP280;59767;51.344;12.362;2023-08-08T15:15:53;163583.13;;;19.05
71897;BMP280;59767;51.344;12.362;2023-08-08T15:18:57;163577.91;;;19.03
71897;BMP280;59767;51.344;12.362;2023-08-08T15:22:01;163575.22;;;19.02
71897;BMP280;59767;51.344;12.362;2023-08-08T15:25:05;163592.31;;;19.08
71897;BMP280;59767;51.344;12.362;2023-08-08T15:28:10;163579.19;;;19.03
71897;BMP280;59767;51.344;12.362;2023-08-08T15:31:14;163589.72;;;19.07
71897;BMP280;59767;51.344;12.362;2023-08-08T15:34:18;163588.38;;;19.07
71897;BMP280;59767;51.344;12.362;2023-08-08T15:37:22;163598.91;;;19.11
71897;BMP280;59767;51.344;12.362;2023-08-08T15:40:26;163568.69;;;18.99
71897;BMP280;59767;51.344;12.362;2023-08-08T15:43:30;163596.28;;;19.10
71897;BMP280;59767;51.344;12.362;2023-08-08T15:46:35;163581.84;;;19.04
71897;BMP280;59767;51.344;12.362;2023-08-08T15:49:39;163573.94;;;19.01
71897;BMP280;59767;51.344;12.362;2023-08-08T15:52:43;163569.97;;;19.00
71897;BMP280;59767;51.344;12.362;2023-08-08T15:55:48;163576.56;;;19.02
71897;BMP280;59767;51.344;12.362;2023-08-08T15:58:52;163583.13;;;19.05
71897;BMP280;59767;51.344;12.362;2023-08-08T16:01:56;163576.56;;;19.02
71897;BMP280;59767;51.344;12.362;2023-08-08T16:05:01;163596.28;;;19.10
71897;BMP280;59767;51.344;12.362;2023-08-08T16:08:05;163597.59;;;19.10
71897;BMP280;59767;51.344;12.362;2023-08-08T16:11:10;163593.66;;;19.09
71897;BMP280;59767;51.344;12.362;2023-08-08T16:14:15;163602.84;;;19.12
71897;BMP280;59767;51.344;12.362;2023-08-08T16:17:21;163622.53;;;19.20
71897;BMP280;59767;51.344;12.362;2023-08-08T16:20:25;163614.66;;;19.17
71897;BMP280;59767;51.344;12.362;2023-08-08T16:23:29;163604.13;;;19.13
71897;BMP280;59767;51.344;12.362;2023-08-08T16:26:33;163566.03;;;18.98
71897;BMP280;59767;51.344;12.362;2023-08-08T16:29:37;163542.41;;;18.89
71897;BMP280;59767;51.344;12.362;2023-08-08T16:32:42;163533.22;;;18.86
71897;BMP280;59767;51.344;12.362;2023-08-08T16:35:46;163534.56;;;18.86
71897;BMP280;59767;51.344;12.362;2023-08-08T16:38:51;163522.75;;;18.82
71897;BMP280;59767;51.344;12.362;2023-08-08T16:41:58;163503.09;;;18.74
71897;BMP280;59767;51.344;12.362;2023-08-08T16:45:03;163500.41;;;18.73
71897;BMP280;59767;51.344;12.362;2023-08-08T16:48:08;163471.53;;;18.62
71897;BMP280;59767;51.344;12.362;2023-08-08T16:51:13;163468.94;;;18.61
71897;BMP280;59767;51.344;12.362;2023-08-08T16:54:17;163487.28;;;18.68
71897;BMP280;59767;51.344;12.362;2023-08-08T16:57:21;163467.63;;;18.61
71897;BMP280;59767;51.344;12.362;2023-08-08T17:00:25;163454.47;;;18.56
71897;BMP280;59767;51.344;12.362;2023-08-08T17:03:29;163450.53;;;18.54
71897;BMP280;59767;51.344;12.362;2023-08-08T17:06:33;163434.75;;;18.48
71897;BMP280;59767;51.344;12.362;2023-08-08T17:09:37;163430.88;;;18.47
71897;BMP280;59767;51.344;12.362;2023-08-08T17:12:42;163451.84;;;18.55